Maasdam — PFRO — position and weather

sailwx.info

Track history (hours):
 
Tides and Currents Weather Stations Pressure Air Temp Water Temp Dewpoint Dewpoint Depression Visibility Wind Speed Wind Dir Waves Ship Positions

Maasdam

Operator: Holland America Line

Last reported at 2018-Aug-12 22:31 UTC. Time now 2018-Aug-15 12:39 UTC.
Position N 43°58' W 067°25'.

MMSI: 244958000.

Date/timePositionNaut miles runAvg speedWind from/ knotsBaromVisibWave heightAir tempDewpointWater temp
2018-Aug-12 22:31N 43°58' W 067°25'014.5
2018-Aug-12 22:30N 43°58' W 067°25'918.0
2018-Aug-12 22:01N 44°04' W 067°35'918.5
2018-Aug-12 21:30N 44°09' W 067°45'917.5
2018-Aug-12 21:00N 44°14' W 067°56'917.7
2018-Aug-12 20:30N 44°19' W 068°06'6 0.6
2018-Aug-12 10:56N 44°24' W 068°10'611.5
2018-Aug-12 10:26N 44°18' W 068°08'511.7
2018-Aug-12 10:01N 44°13' W 068°08'815.8
2018-Aug-12 09:31N 44°06' W 068°10'816.0
2018-Aug-12 09:00N 43°58' W 068°15'613.1
2018-Aug-12 08:30N 43°53' W 068°20'611.9
2018-Aug-12 08:00N 43°48' W 068°25'611.8
2018-Aug-12 07:30N 43°43' W 068°30'711.9
2018-Aug-12 06:57N 43°38' W 068°35'511.9
2018-Aug-12 06:30N 43°34' W 068°40'612.2
2018-Aug-12 06:00N 43°30' W 068°47'611.8
2018-Aug-12 05:30N 43°27' W 068°53'612.1
2018-Aug-12 04:58N 43°23' W 069°00'1512.1
2018-Aug-12 03:44N 43°14' W 069°17'311.5
2018-Aug-12 03:28N 43°12' W 069°20'714.1
2018-Aug-12 03:00N 43°06' W 069°24'333.7 070 / 131020.910.8 21.016.026.0
2018-Aug-12 02:54N 43°08' W 069°27'512.4
2018-Aug-12 02:30N 43°05' W 069°33'612.1
2018-Aug-12 02:00N 43°01' W 069°39'813.6
2018-Aug-12 01:27N 42°57' W 069°48'614.0
2018-Aug-12 01:00N 42°54' W 069°55'714.0
2018-Aug-12 00:30N 42°49' W 070°02'714.1
2018-Aug-12 00:00N 42°45' W 070°09'714.1
2018-Aug-11 23:30N 42°40' W 070°17'714.2
2018-Aug-11 23:00N 42°36' W 070°25'714.1
2018-Aug-11 22:30N 42°32' W 070°32'713.6
2018-Aug-11 22:00N 42°28' W 070°40'713.8
2018-Aug-11 21:30N 42°24' W 070°47'612.7
2018-Aug-11 21:00N 42°22' W 070°55'4 8.2
2018-Aug-11 20:29N 42°21' W 071°01'0 2.3
2018-Aug-11 20:28N 42°21' W 071°01'1 1.4
2018-Aug-11 19:58N 42°21' W 071°02'0 0.0
2018-Aug-11 19:28N 42°21' W 071°02'0 0.0
2018-Aug-11 18:58N 42°21' W 071°02'0 0.0
2018-Aug-11 18:28N 42°21' W 071°02'0 0.0
2018-Aug-11 17:58N 42°21' W 071°02'0 0.0
2018-Aug-11 17:28N 42°21' W 071°02'0 0.0
2018-Aug-11 16:58N 42°21' W 071°02'0 0.0
2018-Aug-11 16:28N 42°21' W 071°02'0 0.0
2018-Aug-11 15:58N 42°21' W 071°02'0 0.0
2018-Aug-11 15:28N 42°21' W 071°02'0 0.0
2018-Aug-11 14:58N 42°21' W 071°02'0 0.0
2018-Aug-11 14:28N 42°21' W 071°02'0 0.0
2018-Aug-11 13:58N 42°21' W 071°02'0 0.0
2018-Aug-11 13:28N 42°21' W 071°02'0 0.0
2018-Aug-11 12:58N 42°21' W 071°02'0 0.0
2018-Aug-11 12:28N 42°21' W 071°02'0 0.0
2018-Aug-11 11:58N 42°21' W 071°02'0 0.0
2018-Aug-11 11:28N 42°21' W 071°02'0 0.2
2018-Aug-11 11:01N 42°21' W 071°02'3 5.2
2018-Aug-11 10:31N 42°20' W 070°58'612.8
2018-Aug-11 10:00N 42°24' W 070°51'612.2
2018-Aug-11 09:30N 42°26' W 070°44'815.4
2018-Aug-11 09:00N 42°31' W 070°35'815.7
2018-Aug-11 08:30N 42°35' W 070°26'816.0
2018-Aug-11 08:00N 42°39' W 070°17'816.3
2018-Aug-11 07:31N 42°44' W 070°08'816.4
2018-Aug-11 07:00N 42°49' W 069°60'816.1
2018-Aug-11 06:30N 42°54' W 069°51'816.3
2018-Aug-11 06:00N 42°59' W 069°42'4514.5
2018-Aug-11 02:52N 43°28' W 068°54'1512.8
2018-Aug-11 01:42N 43°38' W 068°38'312.1
2018-Aug-11 01:26N 43°40' W 068°36'1913.0
2018-Aug-11 00:00N 43°54' W 068°18'1011.5 300 / 101014.910.8 19.013.818.0
2018-Aug-10 23:06N 44°03' W 068°12'215.3
2018-Aug-10 22:58N 44°05' W 068°10'1316.0
2018-Aug-10 22:10N 44°18' W 068°08'2 0.2
2018-Aug-10 09:37N 44°19' W 068°06'13117.2
2018-Aug-10 02:00N 43°18' W 065°24'5317.6 220 / 271009.9 16.016.018.0
2018-Aug-09 23:00N 43°48' W 064°24'152 3.2 200 / 251008.9 0.0 18.016.318.0
2018-Aug-08 00:00N 45°54' W 062°24'85 4.0 220 / 61012.910.8 23.021.528.0
2018-Aug-07 03:00N 47°18' W 062°06'7 7.2 150 / 161014.910.8 21.019.425.0
2018-Aug-07 02:00N 47°24' W 062°00'1312.7 150 / 191014.910.8 21.019.426.0
2018-Aug-07 01:00N 47°36' W 061°54'1818.0 260 / 171014.910.8 21.019.425.0
2018-Aug-07 00:00N 47°54' W 061°54'30515.3 150 / 201014.910.8 20.018.424.0
2018-Aug-06 04:00N 48°06' W 069°30'10115.7 240 / 131016.9 15.011.312.0
2018-Aug-05 21:36N 46°51' W 071°08'216.2
2018-Aug-05 21:30N 46°50' W 071°11'1 1.4
2018-Aug-05 20:36N 46°49' W 071°12'0 0.0
2018-Aug-05 20:27N 46°49' W 071°12'0 0.0
2018-Aug-05 19:57N 46°49' W 071°12'0 0.0
2018-Aug-05 19:21N 46°49' W 071°12'0 0.0
2018-Aug-05 17:51N 46°49' W 071°12'0 0.0
2018-Aug-05 16:51N 46°49' W 071°12'0 0.0
2018-Aug-05 16:27N 46°49' W 071°12'0 0.0
2018-Aug-05 15:09N 46°49' W 071°12'0 0.0
2018-Aug-05 13:09N 46°49' W 071°12'0 0.0
2018-Aug-05 12:57N 46°49' W 071°12'0 0.0
2018-Aug-05 12:30N 46°49' W 071°12'0 0.0
2018-Aug-05 11:49N 46°49' W 071°12'0 0.0
2018-Aug-05 11:28N 46°49' W 071°12'0 0.0
2018-Aug-05 10:55N 46°49' W 071°12'0 0.0
2018-Aug-05 10:30N 46°49' W 071°12'82 8.9
2018-Aug-05 01:22N 46°10' W 072°56'412.0
2018-Aug-05 01:00N 46°06' W 072°59'612.0
2018-Aug-05 00:30N 46°03' W 073°06'510.8
2018-Aug-05 00:00N 45°59' W 073°11'611.8
2018-Aug-04 23:30N 45°53' W 073°14'612.3
2018-Aug-04 23:00N 45°49' W 073°19'612.2
2018-Aug-04 22:30N 45°44' W 073°25'612.1
2018-Aug-04 21:59N 45°38' W 073°29'9 0.8
2018-Aug-04 10:52N 45°30' W 073°33'0 0.0
2018-Aug-04 10:22N 45°30' W 073°33'1 3.1
2018-Aug-04 09:55N 45°32' W 073°32'4 8.3
2018-Aug-04 09:30N 45°35' W 073°30'4 8.8
2018-Aug-04 08:59N 45°39' W 073°29'510.3
2018-Aug-04 08:30N 45°44' W 073°26'510.5
2018-Aug-04 08:00N 45°47' W 073°21'510.5
2018-Aug-04 07:30N 45°52' W 073°16'510.1
2018-Aug-04 07:00N 45°56' W 073°13'713.2
2018-Aug-04 06:30N 46°02' W 073°10'510.8
2018-Aug-04 06:00N 46°04' W 073°02'510.6
2018-Aug-04 05:30N 46°08' W 072°57'8011.0
2018-Aug-03 22:15N 46°46' W 071°15'410.2
2018-Aug-03 21:54N 46°49' W 071°12'0 0.2
2018-Aug-03 19:44N 46°49' W 071°12'0 0.0
2018-Aug-03 19:20N 46°49' W 071°12'0 0.0
2018-Aug-03 18:44N 46°49' W 071°12'0 0.0
2018-Aug-03 18:02N 46°49' W 071°12'0 0.0
2018-Aug-03 17:47N 46°49' W 071°12'0 0.0
2018-Aug-03 17:29N 46°49' W 071°12'0 0.0
2018-Aug-03 16:41N 46°49' W 071°12'0 0.0
2018-Aug-03 16:20N 46°49' W 071°12'0 0.0
2018-Aug-03 15:56N 46°49' W 071°12'0 0.0
2018-Aug-03 14:44N 46°49' W 071°12'0 0.0
2018-Aug-03 13:50N 46°49' W 071°12'0 0.0
2018-Aug-03 13:20N 46°49' W 071°12'0 0.0
2018-Aug-03 12:14N 46°49' W 071°12'0 0.0
2018-Aug-03 11:53N 46°49' W 071°12'0 0.2
2018-Aug-03 11:24N 46°49' W 071°12'3 7.5
2018-Aug-03 11:00N 46°50' W 071°08'  
Track history (hours):
 
Tides and Currents Weather Stations Pressure Air Temp Water Temp Dewpoint Dewpoint Depression Visibility Wind Speed Wind Dir Waves Ship Positions

Maasdam

Operator: Holland America Line

Last reported at 2018-Aug-12 22:31 UTC. Time now 2018-Aug-15 12:39 UTC.
Position N 43°58' W 067°25'.

MMSI: 244958000.

Date/timePositionNaut miles runAvg speedWind from/ knotsBaromVisibWave heightAir tempDewpointWater temp
2018-Aug-12 22:31N 43°58' W 067°25'014.5
2018-Aug-12 22:30N 43°58' W 067°25'918.0
2018-Aug-12 22:01N 44°04' W 067°35'918.5
2018-Aug-12 21:30N 44°09' W 067°45'917.5
2018-Aug-12 21:00N 44°14' W 067°56'917.7
2018-Aug-12 20:30N 44°19' W 068°06'6 0.6
2018-Aug-12 10:56N 44°24' W 068°10'611.5
2018-Aug-12 10:26N 44°18' W 068°08'511.7
2018-Aug-12 10:01N 44°13' W 068°08'815.8
2018-Aug-12 09:31N 44°06' W 068°10'816.0
2018-Aug-12 09:00N 43°58' W 068°15'613.1
2018-Aug-12 08:30N 43°53' W 068°20'611.9
2018-Aug-12 08:00N 43°48' W 068°25'611.8
2018-Aug-12 07:30N 43°43' W 068°30'711.9
2018-Aug-12 06:57N 43°38' W 068°35'511.9
2018-Aug-12 06:30N 43°34' W 068°40'612.2
2018-Aug-12 06:00N 43°30' W 068°47'611.8
2018-Aug-12 05:30N 43°27' W 068°53'612.1
2018-Aug-12 04:58N 43°23' W 069°00'1512.1
2018-Aug-12 03:44N 43°14' W 069°17'311.5
2018-Aug-12 03:28N 43°12' W 069°20'714.1
2018-Aug-12 03:00N 43°06' W 069°24'333.7 070 / 131020.910.8 21.016.026.0
2018-Aug-12 02:54N 43°08' W 069°27'512.4
2018-Aug-12 02:30N 43°05' W 069°33'612.1
2018-Aug-12 02:00N 43°01' W 069°39'813.6
2018-Aug-12 01:27N 42°57' W 069°48'614.0
2018-Aug-12 01:00N 42°54' W 069°55'714.0
2018-Aug-12 00:30N 42°49' W 070°02'714.1
2018-Aug-12 00:00N 42°45' W 070°09'714.1
2018-Aug-11 23:30N 42°40' W 070°17'714.2
2018-Aug-11 23:00N 42°36' W 070°25'714.1
2018-Aug-11 22:30N 42°32' W 070°32'713.6
2018-Aug-11 22:00N 42°28' W 070°40'713.8
2018-Aug-11 21:30N 42°24' W 070°47'612.7
2018-Aug-11 21:00N 42°22' W 070°55'4 8.2
2018-Aug-11 20:29N 42°21' W 071°01'0 2.3
2018-Aug-11 20:28N 42°21' W 071°01'1 1.4
2018-Aug-11 19:58N 42°21' W 071°02'0 0.0
2018-Aug-11 19:28N 42°21' W 071°02'0 0.0
2018-Aug-11 18:58N 42°21' W 071°02'0 0.0
2018-Aug-11 18:28N 42°21' W 071°02'0 0.0
2018-Aug-11 17:58N 42°21' W 071°02'0 0.0
2018-Aug-11 17:28N 42°21' W 071°02'0 0.0
2018-Aug-11 16:58N 42°21' W 071°02'0 0.0
2018-Aug-11 16:28N 42°21' W 071°02'0 0.0
2018-Aug-11 15:58N 42°21' W 071°02'0 0.0
2018-Aug-11 15:28N 42°21' W 071°02'0 0.0
2018-Aug-11 14:58N 42°21' W 071°02'0 0.0
2018-Aug-11 14:28N 42°21' W 071°02'0 0.0
2018-Aug-11 13:58N 42°21' W 071°02'0 0.0
2018-Aug-11 13:28N 42°21' W 071°02'0 0.0
2018-Aug-11 12:58N 42°21' W 071°02'0 0.0
2018-Aug-11 12:28N 42°21' W 071°02'0 0.0
2018-Aug-11 11:58N 42°21' W 071°02'0 0.0
2018-Aug-11 11:28N 42°21' W 071°02'0 0.2
2018-Aug-11 11:01N 42°21' W 071°02'3 5.2
2018-Aug-11 10:31N 42°20' W 070°58'612.8
2018-Aug-11 10:00N 42°24' W 070°51'612.2
2018-Aug-11 09:30N 42°26' W 070°44'815.4
2018-Aug-11 09:00N 42°31' W 070°35'815.7
2018-Aug-11 08:30N 42°35' W 070°26'816.0
2018-Aug-11 08:00N 42°39' W 070°17'816.3
2018-Aug-11 07:31N 42°44' W 070°08'816.4
2018-Aug-11 07:00N 42°49' W 069°60'816.1
2018-Aug-11 06:30N 42°54' W 069°51'816.3
2018-Aug-11 06:00N 42°59' W 069°42'4514.5
2018-Aug-11 02:52N 43°28' W 068°54'1512.8
2018-Aug-11 01:42N 43°38' W 068°38'312.1
2018-Aug-11 01:26N 43°40' W 068°36'1913.0
2018-Aug-11 00:00N 43°54' W 068°18'1011.5 300 / 101014.910.8 19.013.818.0
2018-Aug-10 23:06N 44°03' W 068°12'215.3
2018-Aug-10 22:58N 44°05' W 068°10'1316.0
2018-Aug-10 22:10N 44°18' W 068°08'2 0.2
2018-Aug-10 09:37N 44°19' W 068°06'13117.2
2018-Aug-10 02:00N 43°18' W 065°24'5317.6 220 / 271009.9 16.016.018.0
2018-Aug-09 23:00N 43°48' W 064°24'152 3.2 200 / 251008.9 0.0 18.016.318.0
2018-Aug-08 00:00N 45°54' W 062°24'85 4.0 220 / 61012.910.8 23.021.528.0
2018-Aug-07 03:00N 47°18' W 062°06'7 7.2 150 / 161014.910.8 21.019.425.0
2018-Aug-07 02:00N 47°24' W 062°00'1312.7 150 / 191014.910.8 21.019.426.0
2018-Aug-07 01:00N 47°36' W 061°54'1818.0 260 / 171014.910.8 21.019.425.0
2018-Aug-07 00:00N 47°54' W 061°54'30515.3 150 / 201014.910.8 20.018.424.0
2018-Aug-06 04:00N 48°06' W 069°30'10115.7 240 / 131016.9 15.011.312.0
2018-Aug-05 21:36N 46°51' W 071°08'216.2
2018-Aug-05 21:30N 46°50' W 071°11'1 1.4
2018-Aug-05 20:36N 46°49' W 071°12'0 0.0
2018-Aug-05 20:27N 46°49' W 071°12'0 0.0
2018-Aug-05 19:57N 46°49' W 071°12'0 0.0
2018-Aug-05 19:21N 46°49' W 071°12'0 0.0
2018-Aug-05 17:51N 46°49' W 071°12'0 0.0
2018-Aug-05 16:51N 46°49' W 071°12'0 0.0
2018-Aug-05 16:27N 46°49' W 071°12'0 0.0
2018-Aug-05 15:09N 46°49' W 071°12'0 0.0
2018-Aug-05 13:09N 46°49' W 071°12'0 0.0
2018-Aug-05 12:57N 46°49' W 071°12'0 0.0
2018-Aug-05 12:30N 46°49' W 071°12'0 0.0
2018-Aug-05 11:49N 46°49' W 071°12'0 0.0
2018-Aug-05 11:28N 46°49' W 071°12'0 0.0
2018-Aug-05 10:55N 46°49' W 071°12'0 0.0
2018-Aug-05 10:30N 46°49' W 071°12'82 8.9
2018-Aug-05 01:22N 46°10' W 072°56'412.0
2018-Aug-05 01:00N 46°06' W 072°59'612.0
2018-Aug-05 00:30N 46°03' W 073°06'510.8
2018-Aug-05 00:00N 45°59' W 073°11'611.8
2018-Aug-04 23:30N 45°53' W 073°14'612.3
2018-Aug-04 23:00N 45°49' W 073°19'612.2
2018-Aug-04 22:30N 45°44' W 073°25'612.1
2018-Aug-04 21:59N 45°38' W 073°29'9 0.8
2018-Aug-04 10:52N 45°30' W 073°33'0 0.0
2018-Aug-04 10:22N 45°30' W 073°33'1 3.1
2018-Aug-04 09:55N 45°32' W 073°32'4 8.3
2018-Aug-04 09:30N 45°35' W 073°30'4 8.8
2018-Aug-04 08:59N 45°39' W 073°29'510.3
2018-Aug-04 08:30N 45°44' W 073°26'510.5
2018-Aug-04 08:00N 45°47' W 073°21'510.5
2018-Aug-04 07:30N 45°52' W 073°16'510.1
2018-Aug-04 07:00N 45°56' W 073°13'713.2
2018-Aug-04 06:30N 46°02' W 073°10'510.8
2018-Aug-04 06:00N 46°04' W 073°02'510.6
2018-Aug-04 05:30N 46°08' W 072°57'8011.0
2018-Aug-03 22:15N 46°46' W 071°15'410.2
2018-Aug-03 21:54N 46°49' W 071°12'0 0.2
2018-Aug-03 19:44N 46°49' W 071°12'0 0.0
2018-Aug-03 19:20N 46°49' W 071°12'0 0.0
2018-Aug-03 18:44N 46°49' W 071°12'0 0.0
2018-Aug-03 18:02N 46°49' W 071°12'0 0.0
2018-Aug-03 17:47N 46°49' W 071°12'0 0.0
2018-Aug-03 17:29N 46°49' W 071°12'0 0.0
2018-Aug-03 16:41N 46°49' W 071°12'0 0.0
2018-Aug-03 16:20N 46°49' W 071°12'0 0.0
2018-Aug-03 15:56N 46°49' W 071°12'0 0.0
2018-Aug-03 14:44N 46°49' W 071°12'0 0.0
2018-Aug-03 13:50N 46°49' W 071°12'0 0.0
2018-Aug-03 13:20N 46°49' W 071°12'0 0.0
2018-Aug-03 12:14N 46°49' W 071°12'0 0.0
2018-Aug-03 11:53N 46°49' W 071°12'0 0.2
2018-Aug-03 11:24N 46°49' W 071°12'3 7.5
2018-Aug-03 11:00N 46°50' W 071°08'  

Dump ship's entire track history